Time;durP1;ratioP1;P1;durP2;ratioP2;P2;SDS_P1;SDS_P2;PMS_P1;PMS_P2;Temp;Humidity;BMP_temperature;BMP_pressure;BME280_temperature;BME280_humidity;BME280_pressure;Samples;Min_cycle;Max_cycle;Signal;HPM_P1;HPM_P2
2021/10/27 00:01:02;;;;;;;177.21;92.33;;;;;;;1.38;52.08;102329.38;447994;115;923427;-77
2021/10/27 00:02:06;;;;;;;195.06;99.18;;;;;;;1.36;52.13;102332.16;450993;115;930422;-76
2021/10/27 00:03:09;;;;;;;184.89;93.70;;;;;;;1.36;52.17;102331.30;450821;115;922543;-77
2021/10/27 00:04:14;;;;;;;167.64;85.76;;;;;;;1.34;52.21;102335.91;451222;115;922941;-78
2021/10/27 00:05:18;;;;;;;175.78;90.86;;;;;;;1.33;52.21;102328.82;451522;116;930194;-77
2021/10/27 00:06:23;;;;;;;172.64;88.86;;;;;;;1.34;52.29;102325.17;449577;116;922749;-77
2021/10/27 00:07:27;;;;;;;173.59;88.02;;;;;;;1.36;52.33;102325.92;451754;116;922551;-76
2021/10/27 00:08:31;;;;;;;163.26;86.31;;;;;;;1.37;52.40;102324.96;451720;115;922829;-78
2021/10/27 00:09:36;;;;;;;165.76;84.82;;;;;;;1.37;52.45;102328.52;443211;117;922825;-77
2021/10/27 00:10:39;;;;;;;160.45;80.34;;;;;;;1.39;52.41;102339.13;443302;116;922363;-77
2021/10/27 00:11:43;;;;;;;145.70;80.32;;;;;;;1.37;52.38;102325.82;450297;115;923665;-77
2021/10/27 00:12:47;;;;;;;154.05;80.97;;;;;;;1.35;52.39;102329.58;450067;115;930472;-76
2021/10/27 00:13:50;;;;;;;151.57;78.00;;;;;;;1.33;52.44;102326.99;450612;116;930518;-76
2021/10/27 00:14:55;;;;;;;138.93;76.59;;;;;;;1.31;52.48;102330.78;450809;115;922461;-76
2021/10/27 00:16:02;;;;;;;143.12;74.74;;;;;;;1.28;52.49;102323.79;449339;115;922785;-77
2021/10/27 00:17:05;;;;;;;142.58;72.45;;;;;;;1.25;52.59;102322.20;448716;115;923008;-77
2021/10/27 00:18:08;;;;;;;126.30;69.79;;;;;;;1.23;52.68;102321.44;449775;115;922421;-77
2021/10/27 00:19:12;;;;;;;133.23;68.74;;;;;;;1.20;52.75;102321.69;449078;115;922628;-77
2021/10/27 00:20:16;;;;;;;128.79;70.16;;;;;;;1.21;52.86;102322.55;449439;116;922877;-77
2021/10/27 00:21:20;;;;;;;132.69;70.36;;;;;;;1.20;52.94;102321.69;449402;115;930412;-77
2021/10/27 00:22:24;;;;;;;130.19;69.94;;;;;;;1.20;53.01;102313.62;449343;115;922735;-77
2021/10/27 00:23:28;;;;;;;123.84;66.76;;;;;;;1.19;53.07;102322.65;448039;115;922630;-78
2021/10/27 00:24:31;;;;;;;124.03;67.56;;;;;;;1.18;53.17;102315.55;449015;115;930524;-78
2021/10/27 00:25:35;;;;;;;122.67;68.39;;;;;;;1.19;53.22;102311.04;449196;115;930493;-78
2021/10/27 00:26:38;;;;;;;117.53;66.10;;;;;;;1.21;53.36;102315.31;450961;115;930461;-77
2021/10/27 00:27:42;;;;;;;121.12;66.36;;;;;;;1.22;53.38;102317.03;451355;115;922907;-77
2021/10/27 00:28:46;;;;;;;115.43;64.91;;;;;;;1.21;53.45;102318.00;451376;116;922679;-77
2021/10/27 00:29:50;;;;;;;120.33;66.52;;;;;;;1.21;53.49;102315.31;450625;115;930498;-76
2021/10/27 00:30:53;;;;;;;125.45;67.42;;;;;;;1.18;53.55;102315.55;449913;115;923033;-77
2021/10/27 00:31:57;;;;;;;122.48;66.39;;;;;;;1.17;53.58;102313.83;450337;115;930595;-77
2021/10/27 00:33:00;;;;;;;123.36;67.25;;;;;;;1.16;53.61;102308.56;451602;115;922538;-78
2021/10/27 00:34:04;;;;;;;113.58;64.51;;;;;;;1.13;53.67;102317.72;450691;115;922575;-76
2021/10/27 00:35:08;;;;;;;122.31;64.86;;;;;;;1.13;53.72;102311.48;450203;115;930257;-76
2021/10/27 00:36:13;;;;;;;108.51;60.24;;;;;;;1.12;53.81;102307.08;449938;115;923301;-76
2021/10/27 00:37:16;;;;;;;116.52;62.95;;;;;;;1.11;53.92;102308.91;446653;115;922537;-77
2021/10/27 00:38:20;;;;;;;111.15;58.66;;;;;;;1.11;53.97;102311.59;445321;118;923100;-78
2021/10/27 00:39:26;;;;;;;104.85;57.65;;;;;;;1.10;54.07;102306.34;446236;116;922686;-78
2021/10/27 00:40:30;;;;;;;109.33;60.38;;;;;;;1.12;54.13;102307.94;445834;117;922586;-77
2021/10/27 00:41:33;;;;;;;110.22;59.44;;;;;;;1.15;54.18;102305.05;446535;117;922521;-78
2021/10/27 00:42:37;;;;;;;106.29;57.91;;;;;;;1.18;54.18;102309.31;445662;117;923152;-77
2021/10/27 00:43:42;;;;;;;106.48;57.26;;;;;;;1.19;54.12;102305.67;445630;116;930652;-78
2021/10/27 00:44:46;;;;;;;113.38;59.42;;;;;;;1.17;54.01;102305.77;446962;116;922710;-76
2021/10/27 00:45:49;;;;;;;106.30;56.77;;;;;;;1.17;54.04;102302.22;446276;116;922570;-77
2021/10/27 00:47:12;;;;;;;107.61;57.47;;;;;;;1.17;53.98;102307.59;438234;119;922907;-77
2021/10/27 00:48:15;;;;;;;105.49;57.86;;;;;;;1.15;54.00;102305.05;432893;120;923575;-77
2021/10/27 00:49:19;;;;;;;110.45;59.30;;;;;;;1.12;54.01;102297.19;430630;122;923096;-77
2021/10/27 00:50:25;;;;;;;107.42;56.86;;;;;;;1.10;54.06;102299.12;439041;119;930498;-77
2021/10/27 00:51:28;;;;;;;106.99;58.41;;;;;;;1.08;54.08;102302.91;436944;118;922495;-77
2021/10/27 00:52:32;;;;;;;112.74;60.91;;;;;;;1.06;54.16;102294.95;438278;119;922561;-76
2021/10/27 00:53:36;;;;;;;104.28;59.62;;;;;;;1.02;54.20;102298.84;435767;119;930427;-77
2021/10/27 00:54:42;;;;;;;111.74;59.06;;;;;;;1.01;54.29;102297.11;432963;122;923674;-76
2021/10/27 00:55:46;;;;;;;116.03;59.73;;;;;;;0.98;54.49;102294.66;430442;120;922975;-77
2021/10/27 00:56:53;;;;;;;113.37;60.43;;;;;;;0.97;54.51;102298.31;423864;122;922831;-77
2021/10/27 00:57:58;;;;;;;106.46;58.89;;;;;;;0.94;54.66;102300.38;440383;118;922758;-77
2021/10/27 00:59:04;;;;;;;110.61;58.31;;;;;;;0.93;54.70;102304.02;445926;116;922623;-76
2021/10/27 01:00:08;;;;;;;115.54;59.42;;;;;;;0.90;54.87;102301.54;438414;118;922707;-78
2021/10/27 01:01:12;;;;;;;104.62;58.77;;;;;;;0.87;54.98;102293.72;438535;117;922784;-77
2021/10/27 01:02:17;;;;;;;108.68;58.94;;;;;;;0.83;55.05;102296.61;445906;117;931073;-76
2021/10/27 01:03:21;;;;;;;106.51;58.71;;;;;;;0.82;55.11;102294.06;446020;117;930538;-78
2021/10/27 01:04:24;;;;;;;116.54;60.91;;;;;;;0.81;55.22;102289.65;446587;117;922895;-75
2021/10/27 01:05:30;;;;;;;100.54;57.27;;;;;;;0.79;55.34;102291.58;446295;116;930131;-77
2021/10/27 01:06:33;;;;;;;108.81;58.99;;;;;;;0.79;55.43;102291.58;445871;116;923371;-76
2021/10/27 01:07:37;;;;;;;111.33;60.68;;;;;;;0.80;55.54;102294.16;445873;116;922496;-77
2021/10/27 01:08:42;;;;;;;105.11;58.65;;;;;;;0.84;55.57;102294.78;445617;117;930638;-78
2021/10/27 01:09:48;;;;;;;100.51;57.55;;;;;;;0.84;55.58;102294.78;445764;117;922498;-76
2021/10/27 01:10:52;;;;;;;109.24;60.35;;;;;;;0.86;55.64;102284.80;445098;117;930663;-76
2021/10/27 01:11:56;;;;;;;113.17;60.72;;;;;;;0.89;55.66;102286.39;446313;117;923162;-76
2021/10/27 01:13:00;;;;;;;108.08;59.98;;;;;;;0.91;55.64;102290.70;445493;117;930609;-77
2021/10/27 01:14:05;;;;;;;111.09;60.34;;;;;;;0.92;55.64;102291.56;445740;116;922533;-77
2021/10/27 01:15:09;;;;;;;105.48;60.15;;;;;;;0.91;55.65;102292.52;445411;117;922776;-77
2021/10/27 01:16:14;;;;;;;108.58;60.02;;;;;;;0.91;55.69;102289.84;445380;118;923204;-76
2021/10/27 01:17:19;;;;;;;101.24;58.51;;;;;;;0.96;55.72;102287.67;444865;116;923149;-76
2021/10/27 01:18:23;;;;;;;107.66;58.84;;;;;;;0.96;55.72;102287.67;445764;118;922643;-75
2021/10/27 01:19:27;;;;;;;116.37;63.51;;;;;;;1.00;55.75;102289.16;445365;117;930540;-77
2021/10/27 01:20:31;;;;;;;106.86;60.78;;;;;;;1.01;55.69;102286.37;445334;117;930435;-77
2021/10/27 01:21:39;;;;;;;111.56;59.66;;;;;;;1.02;55.63;102282.72;446526;117;922663;-77
2021/10/27 01:22:41;;;;;;;101.35;58.38;;;;;;;1.04;55.59;102280.80;445426;118;922743;-78
2021/10/27 01:23:44;;;;;;;100.74;57.93;;;;;;;1.07;55.58;102282.38;445412;117;922468;-76
2021/10/27 01:24:48;;;;;;;107.67;58.66;;;;;;;1.07;55.48;102280.55;446066;117;922690;-76
2021/10/27 01:25:52;;;;;;;104.16;55.33;;;;;;;1.09;55.49;102277.77;446806;117;930551;-77
2021/10/27 01:26:56;;;;;;;99.01;54.13;;;;;;;1.11;55.39;102273.98;446176;117;930579;-77
2021/10/27 01:28:00;;;;;;;103.50;55.13;;;;;;;1.13;55.22;102280.11;446015;117;922797;-77
2021/10/27 01:29:04;;;;;;;103.69;53.89;;;;;;;1.15;55.01;102270.13;444822;117;922646;-77
2021/10/27 01:30:11;;;;;;;102.84;54.02;;;;;;;1.15;54.84;102280.00;446132;117;922875;-76
2021/10/27 01:31:15;;;;;;;107.02;54.74;;;;;;;1.16;54.72;102279.87;445236;118;922576;-77
2021/10/27 01:32:26;;;;;;;99.92;55.87;;;;;;;1.17;54.61;102283.41;445664;117;922964;-77
2021/10/27 01:33:29;;;;;;;106.08;55.80;;;;;;;1.17;54.46;102278.05;439448;119;922749;-76
2021/10/27 01:34:34;;;;;;;107.96;55.02;;;;;;;1.12;54.32;102281.07;440100;118;930664;-76
2021/10/27 01:35:38;;;;;;;101.20;54.45;;;;;;;1.10;54.15;102276.80;446182;116;922733;-77
2021/10/27 01:36:43;;;;;;;104.96;53.79;;;;;;;1.05;54.06;102285.17;445411;116;922960;-76
2021/10/27 01:37:46;;;;;;;109.25;56.56;;;;;;;1.02;54.03;102276.48;454827;114;923101;-76
2021/10/27 01:38:50;;;;;;;105.79;54.78;;;;;;;0.99;53.92;102277.59;454899;114;922627;-77
2021/10/27 01:39:54;;;;;;;100.51;53.28;;;;;;;0.95;53.87;102277.89;456553;114;922585;-77
2021/10/27 01:40:58;;;;;;;106.38;55.40;;;;;;;0.92;53.75;102276.30;454615;114;923192;-76
2021/10/27 01:42:03;;;;;;;105.27;53.92;;;;;;;0.88;53.68;102276.64;455266;114;922460;-75
2021/10/27 01:43:07;;;;;;;104.46;53.82;;;;;;;0.84;53.64;102270.62;455772;114;922859;-77
2021/10/27 01:44:11;;;;;;;105.69;54.72;;;;;;;0.81;53.61;102269.03;455695;114;923511;-76
2021/10/27 01:45:14;;;;;;;100.05;52.00;;;;;;;0.78;53.62;102273.74;454066;114;922840;-78
2021/10/27 01:46:31;;;;;;;98.85;52.94;;;;;;;0.75;53.59;102272.16;456481;114;922583;-77
2021/10/27 01:47:35;;;;;;;101.88;51.51;;;;;;;0.72;53.72;102263.44;454808;114;924589;-77
2021/10/27 01:48:39;;;;;;;95.27;52.22;;;;;;;0.66;53.75;102267.42;454911;114;922582;-76
2021/10/27 01:49:43;;;;;;;103.19;52.47;;;;;;;0.62;53.74;102263.25;455948;114;930005;-76
2021/10/27 01:50:46;;;;;;;100.32;51.25;;;;;;;0.58;53.85;102268.95;455989;114;922545;-77
2021/10/27 01:51:50;;;;;;;105.89;53.91;;;;;;;0.56;53.92;102270.87;455944;114;923007;-76
2021/10/27 01:52:54;;;;;;;106.91;55.26;;;;;;;0.52;54.04;102272.06;455193;114;922471;-77
2021/10/27 01:53:57;;;;;;;102.08;54.64;;;;;;;0.49;54.19;102269.61;454765;114;922760;-76
2021/10/27 01:55:01;;;;;;;108.65;56.03;;;;;;;0.48;54.37;102267.89;454754;114;924531;-76
2021/10/27 01:56:04;;;;;;;115.76;54.65;;;;;;;0.46;54.49;102270.67;455307;114;930907;-77
2021/10/27 01:57:08;;;;;;;103.31;55.09;;;;;;;0.46;54.55;102272.50;455089;114;923826;-77
2021/10/27 01:58:12;;;;;;;103.70;55.25;;;;;;;0.44;54.67;102269.09;454987;114;922891;-77
2021/10/27 01:59:15;;;;;;;91.08;50.52;;;;;;;0.41;54.72;102265.64;454508;114;923022;-77
2021/10/27 02:00:19;;;;;;;98.94;49.94;;;;;;;0.40;54.69;102266.59;454430;114;922449;-76
2021/10/27 02:01:23;;;;;;;98.36;51.02;;;;;;;0.39;54.68;102264.88;455474;114;930391;-77
2021/10/27 02:02:27;;;;;;;100.77;51.28;;;;;;;0.39;54.64;102269.38;454841;114;922593;-75
2021/10/27 02:03:31;;;;;;;91.89;48.48;;;;;;;0.37;54.61;102271.34;454033;114;923219;-77
2021/10/27 02:04:34;;;;;;;98.56;49.25;;;;;;;0.37;54.63;102271.34;454141;114;930709;-78
2021/10/27 02:05:38;;;;;;;90.94;47.99;;;;;;;0.36;54.63;102273.16;457542;114;930214;-77
2021/10/27 02:06:42;;;;;;;94.81;49.82;;;;;;;0.36;54.67;102283.89;455793;114;922859;-78
2021/10/27 02:07:46;;;;;;;91.77;49.11;;;;;;;0.33;54.68;102276.03;453101;114;930965;-77
2021/10/27 02:08:50;;;;;;;96.96;48.72;;;;;;;0.34;54.71;102276.90;454124;114;930658;-77
2021/10/27 02:09:53;;;;;;;93.81;49.24;;;;;;;0.33;54.70;102280.58;454731;114;922576;-78
2021/10/27 02:10:57;;;;;;;93.19;48.64;;;;;;;0.32;54.72;102277.03;455566;114;930539;-78
2021/10/27 02:12:03;;;;;;;91.49;46.08;;;;;;;0.31;54.75;102275.30;455009;114;930530;-76
2021/10/27 02:13:06;;;;;;;87.67;48.15;;;;;;;0.30;54.75;102278.09;455073;114;923206;-76
2021/10/27 02:14:10;;;;;;;88.48;46.68;;;;;;;0.27;54.77;102276.50;449964;116;922750;-77
2021/10/27 02:15:14;;;;;;;82.71;45.66;;;;;;;0.25;54.75;102273.05;448642;116;930628;-76
2021/10/27 02:16:17;;;;;;;85.48;46.38;;;;;;;0.24;54.78;102274.01;453376;114;922897;-76
2021/10/27 02:17:22;;;;;;;81.03;45.92;;;;;;;0.24;54.79;102279.38;455188;114;922580;-76
2021/10/27 02:18:26;;;;;;;95.17;48.87;;;;;;;0.24;54.78;102270.47;454763;114;922575;-76
2021/10/27 02:19:30;;;;;;;90.37;45.25;;;;;;;0.25;54.78;102275.73;454758;114;922703;-77
2021/10/27 02:20:34;;;;;;;94.16;47.03;;;;;;;0.25;54.79;102273.05;456352;114;922326;-76
2021/10/27 02:21:38;;;;;;;100.43;46.21;;;;;;;0.25;54.77;102273.05;455566;114;922058;-77
2021/10/27 02:22:41;;;;;;;83.74;46.38;;;;;;;0.27;54.73;102270.27;456818;114;922126;-77
2021/10/27 02:23:45;;;;;;;93.04;48.56;;;;;;;0.29;54.72;102274.55;455356;114;930163;-77
2021/10/27 02:24:49;;;;;;;93.99;48.88;;;;;;;0.28;54.72;102272.82;457112;114;922197;-77
2021/10/27 02:25:53;;;;;;;99.52;48.95;;;;;;;0.29;54.68;102271.00;456695;114;922374;-78
2021/10/27 02:26:56;;;;;;;98.49;47.36;;;;;;;0.28;54.72;102262.09;455291;113;922369;-76
2021/10/27 02:28:01;;;;;;;100.64;50.67;;;;;;;0.28;54.73;102270.14;453850;114;922955;-76
2021/10/27 02:29:04;;;;;;;90.36;47.15;;;;;;;0.28;54.78;102269.28;456131;114;930195;-75
2021/10/27 02:30:09;;;;;;;96.46;49.24;;;;;;;0.27;54.79;102271.13;454348;114;922550;-77
2021/10/27 02:31:12;;;;;;;101.84;48.05;;;;;;;0.27;54.83;102267.59;455253;114;922537;-76
2021/10/27 02:32:16;;;;;;;92.56;48.53;;;;;;;0.26;54.86;102266.72;455148;114;922483;-77
2021/10/27 02:33:19;;;;;;;97.74;47.54;;;;;;;0.27;54.84;102264.91;455018;114;923076;-78
2021/10/27 02:34:23;;;;;;;95.47;48.68;;;;;;;0.26;54.80;102272.09;449136;116;930535;-77
2021/10/27 02:35:26;;;;;;;94.58;47.85;;;;;;;0.27;54.79;102267.59;449654;114;930643;-78
2021/10/27 02:36:31;;;;;;;99.57;51.09;;;;;;;0.27;54.79;102270.27;454780;114;930547;-76
2021/10/27 02:37:34;;;;;;;92.19;47.52;;;;;;;0.27;54.77;102267.59;455871;114;930245;-78
2021/10/27 02:38:41;;;;;;;101.47;49.77;;;;;;;0.27;54.82;102271.13;453933;114;922356;-77
2021/10/27 02:39:44;;;;;;;95.04;48.49;;;;;;;0.27;54.79;102268.45;455154;114;922669;-78
2021/10/27 02:40:48;;;;;;;94.54;49.14;;;;;;;0.28;54.80;102264.77;455155;114;922421;-75
2021/10/27 02:41:51;;;;;;;93.36;47.24;;;;;;;0.30;54.79;102276.27;455809;114;922467;-76
2021/10/27 02:42:55;;;;;;;89.66;47.37;;;;;;;0.28;54.69;102270.14;456154;114;922406;-76
2021/10/27 02:43:59;;;;;;;97.58;47.59;;;;;;;0.29;54.67;102273.69;456201;113;922414;-76
2021/10/27 02:45:03;;;;;;;94.92;47.02;;;;;;;0.29;54.64;102274.55;454727;114;930129;-75
2021/10/27 02:46:07;;;;;;;93.69;46.63;;;;;;;0.30;54.64;102272.72;455868;114;922632;-76
2021/10/27 02:47:11;;;;;;;88.74;47.00;;;;;;;0.30;54.61;102267.36;454103;114;922825;-78
2021/10/27 02:48:15;;;;;;;90.16;46.35;;;;;;;0.30;54.62;102270.90;454246;114;923065;-76
2021/10/27 02:49:21;;;;;;;93.37;47.16;;;;;;;0.30;54.61;102267.36;445534;116;922595;-76
2021/10/27 02:50:25;;;;;;;81.11;45.71;;;;;;;0.29;54.56;102268.31;445457;117;922453;-77
2021/10/27 02:51:28;;;;;;;90.46;47.16;;;;;;;0.28;54.58;102264.77;454522;114;922446;-77
2021/10/27 02:52:32;;;;;;;85.97;45.54;;;;;;;0.26;54.68;102261.36;454666;114;930601;-77
2021/10/27 02:53:36;;;;;;;91.01;46.44;;;;;;;0.26;54.66;102269.41;455220;114;923128;-75
2021/10/27 02:54:39;;;;;;;94.06;46.44;;;;;;;0.25;54.72;102270.37;454551;114;930616;-78
2021/10/27 02:55:43;;;;;;;92.66;46.47;;;;;;;0.26;54.80;102272.09;456416;114;922480;-78
2021/10/27 02:56:46;;;;;;;93.51;46.54;;;;;;;0.27;54.84;102278.31;454685;114;922578;-77
2021/10/27 02:57:50;;;;;;;97.59;48.13;;;;;;;0.28;54.84;102278.19;455759;114;922620;-76
2021/10/27 02:58:53;;;;;;;93.31;46.68;;;;;;;0.27;54.87;102273.81;454422;114;922604;-78
2021/10/27 02:59:57;;;;;;;96.50;47.46;;;;;;;0.27;54.83;102267.59;455036;113;922784;-77
2021/10/27 03:01:01;;;;;;;92.87;47.98;;;;;;;0.26;54.88;102266.72;454262;114;922594;-76
2021/10/27 03:02:05;;;;;;;99.76;48.59;;;;;;;0.26;54.92;102271.23;454019;114;930603;-78
2021/10/27 03:03:09;;;;;;;99.23;48.04;;;;;;;0.25;54.98;102273.05;455170;114;922766;-77
2021/10/27 03:04:12;;;;;;;97.41;50.69;;;;;;;0.26;55.04;102276.59;455030;114;922665;-75
2021/10/27 03:05:16;;;;;;;100.55;52.93;;;;;;;0.25;55.00;102269.50;455813;114;922600;-74
2021/10/27 03:06:21;;;;;;;99.40;49.83;;;;;;;0.24;55.01;102274.01;454874;114;930484;-75
2021/10/27 03:07:25;;;;;;;90.16;48.50;;;;;;;0.22;55.04;102272.41;454187;114;922520;-74
2021/10/27 03:08:28;;;;;;;92.56;48.35;;;;;;;0.22;55.12;102270.56;455290;114;922616;-77
2021/10/27 03:09:32;;;;;;;93.31;49.26;;;;;;;0.23;55.21;102274.97;455242;114;930635;-75
2021/10/27 03:10:35;;;;;;;102.19;50.80;;;;;;;0.23;55.20;102268.74;454964;113;930858;-77
2021/10/27 03:11:39;;;;;;;95.72;49.19;;;;;;;0.22;55.19;102275.92;455999;114;922506;-75
2021/10/27 03:12:43;;;;;;;100.90;49.46;;;;;;;0.20;55.19;102272.52;456088;114;922664;-78
2021/10/27 03:13:47;;;;;;;98.28;49.73;;;;;;;0.20;55.21;102277.87;454843;114;922921;-76
2021/10/27 03:14:51;;;;;;;100.32;50.48;;;;;;;0.19;55.23;102278.84;455242;114;922600;-76
2021/10/27 03:15:55;;;;;;;105.08;49.24;;;;;;;0.19;55.20;102273.47;455057;114;922478;-77
2021/10/27 03:17:00;;;;;;;94.35;48.63;;;;;;;0.19;55.26;102272.61;454735;114;930484;-78
2021/10/27 03:18:04;;;;;;;93.62;48.52;;;;;;;0.20;55.33;102272.52;454770;114;922970;-77
2021/10/27 03:19:07;;;;;;;96.48;47.66;;;;;;;0.22;55.31;102275.10;455639;113;930822;-77
2021/10/27 03:20:12;;;;;;;99.88;48.15;;;;;;;0.22;55.26;102275.10;455405;114;922617;-77
2021/10/27 03:21:15;;;;;;;86.72;47.51;;;;;;;0.21;55.23;102270.70;454540;114;922605;-77
2021/10/27 03:22:19;;;;;;;95.72;49.06;;;;;;;0.19;55.23;102267.25;456576;114;930595;-78
2021/10/27 03:23:22;;;;;;;98.25;50.20;;;;;;;0.18;55.26;102266.39;454630;114;930030;-77
2021/10/27 03:24:26;;;;;;;103.14;48.48;;;;;;;0.19;55.32;102267.25;455952;113;930220;-76
2021/10/27 03:25:29;;;;;;;103.24;49.99;;;;;;;0.17;55.34;102264.66;455254;114;930617;-77
2021/10/27 03:26:34;;;;;;;95.78;48.46;;;;;;;0.15;55.34;102257.70;454666;114;930655;-76
2021/10/27 03:27:37;;;;;;;97.54;49.48;;;;;;;0.13;55.33;102260.48;455731;114;922943;-77
2021/10/27 03:28:40;;;;;;;90.04;50.69;;;;;;;0.11;55.33;102267.77;455949;114;922476;-76
2021/10/27 03:29:44;;;;;;;96.96;49.69;;;;;;;0.11;55.40;102262.41;454761;114;930549;-79
2021/10/27 03:30:49;;;;;;;96.31;49.48;;;;;;;0.10;55.44;102259.85;456563;114;922708;-76
2021/10/27 03:31:53;;;;;;;95.16;49.41;;;;;;;0.12;55.49;102260.58;455043;114;922782;-77
2021/10/27 03:32:57;;;;;;;99.14;50.28;;;;;;;0.12;55.58;102258.77;445455;116;922603;-79
2021/10/27 03:34:01;;;;;;;95.25;50.24;;;;;;;0.14;55.64;102258.66;436888;118;922748;-77
2021/10/27 03:35:05;;;;;;;88.55;48.90;;;;;;;0.15;55.69;102255.89;455862;114;922821;-78
2021/10/27 03:36:10;;;;;;;95.74;48.80;;;;;;;0.16;55.63;102254.06;455248;113;923088;-75
2021/10/27 03:37:14;;;;;;;94.39;49.64;;;;;;;0.14;55.54;102256.84;454307;114;930591;-75
2021/10/27 03:38:18;;;;;;;89.41;48.29;;;;;;;0.14;55.53;102254.16;453738;114;930617;-76
2021/10/27 03:39:21;;;;;;;100.37;49.08;;;;;;;0.14;55.54;102255.98;449650;115;923246;-75
2021/10/27 03:40:25;;;;;;;93.47;47.94;;;;;;;0.12;55.52;102253.40;450169;115;922506;-78
2021/10/27 03:41:29;;;;;;;89.92;45.16;;;;;;;0.10;55.49;102252.67;450724;115;922531;-77
2021/10/27 03:42:32;;;;;;;88.73;46.81;;;;;;;0.09;55.54;102247.41;450564;115;930453;-78
2021/10/27 03:43:36;;;;;;;92.89;48.02;;;;;;;0.08;55.59;102249.22;449572;116;930340;-76
2021/10/27 03:44:39;;;;;;;85.67;44.88;;;;;;;0.10;55.59;102243.77;449834;116;922894;-76
2021/10/27 03:45:43;;;;;;;98.45;46.94;;;;;;;0.11;55.48;102240.13;450796;115;922766;-75
2021/10/27 03:46:47;;;;;;;89.24;44.95;;;;;;;0.10;55.36;102243.77;448937;115;922569;-76
2021/10/27 03:47:50;;;;;;;87.19;45.99;;;;;;;0.08;55.31;102243.86;448548;116;930559;-78
2021/10/27 03:48:54;;;;;;;93.99;47.09;;;;;;;0.09;55.25;102239.36;450789;115;931178;-76
2021/10/27 03:49:57;;;;;;;89.62;46.22;;;;;;;0.08;55.30;102248.36;448931;116;922594;-77
2021/10/27 03:51:01;;;;;;;92.09;45.26;;;;;;;0.08;55.26;102243.86;450221;115;930471;-77
2021/10/27 03:52:05;;;;;;;97.34;48.59;;;;;;;0.08;55.14;102238.50;449534;115;930631;-77
2021/10/27 03:53:09;;;;;;;93.92;48.80;;;;;;;0.07;55.05;102244.81;450493;115;922695;-78
2021/10/27 03:54:12;;;;;;;94.65;48.65;;;;;;;0.06;54.97;102247.59;449271;116;922746;-75
2021/10/27 03:55:17;;;;;;;89.84;46.80;;;;;;;0.04;54.93;102247.73;449974;115;923219;-76
2021/10/27 03:56:21;;;;;;;88.54;48.32;;;;;;;0.02;54.95;102249.64;449590;115;922731;-78
2021/10/27 03:57:25;;;;;;;91.79;49.77;;;;;;;-0.01;54.95;102241.83;450299;116;923010;-77
2021/10/27 03:58:30;;;;;;;91.38;48.08;;;;;;;-0.03;54.95;102238.38;449600;116;930565;-77
2021/10/27 03:59:34;;;;;;;96.27;48.57;;;;;;;-0.05;54.94;102246.52;449871;115;922915;-76
2021/10/27 04:00:39;;;;;;;85.21;46.21;;;;;;;-0.08;54.95;102248.56;450642;115;922478;-76
2021/10/27 04:01:43;;;;;;;94.31;49.53;;;;;;;-0.09;55.02;102246.84;449068;115;922600;-75
2021/10/27 04:02:47;;;;;;;90.08;48.21;;;;;;;-0.10;55.01;102254.02;450109;115;922663;-76
2021/10/27 04:03:51;;;;;;;93.18;48.54;;;;;;;-0.11;55.04;102246.94;450165;115;922565;-76
2021/10/27 04:04:55;;;;;;;91.70;48.81;;;;;;;-0.12;54.85;102245.25;450011;116;930346;-76
2021/10/27 04:05:58;;;;;;;93.54;48.06;;;;;;;-0.13;54.97;102246.20;449925;115;930592;-81
2021/10/27 04:07:02;;;;;;;96.34;50.76;;;;;;;-0.14;54.98;102244.48;449447;116;922799;-77
2021/10/27 04:08:06;;;;;;;96.03;50.54;;;;;;;-0.15;55.03;102249.94;449522;115;930981;-78
2021/10/27 04:09:10;;;;;;;93.79;51.21;;;;;;;-0.16;55.17;102243.72;450567;115;923068;-76
2021/10/27 04:10:14;;;;;;;97.70;52.86;;;;;;;-0.15;55.25;102245.44;448730;116;930281;-76
2021/10/27 04:11:18;;;;;;;99.45;52.50;;;;;;;-0.14;55.34;102241.80;449502;115;922586;-77
2021/10/27 04:12:21;;;;;;;101.90;53.54;;;;;;;-0.11;55.40;102248.80;449907;115;923098;-77
2021/10/27 04:13:25;;;;;;;94.41;51.45;;;;;;;-0.11;55.46;102244.27;450775;115;922469;-78
2021/10/27 04:14:28;;;;;;;98.92;51.41;;;;;;;-0.07;55.57;102247.61;449131;115;922762;-75
2021/10/27 04:15:32;;;;;;;92.02;51.08;;;;;;;-0.05;55.62;102251.02;450411;116;930333;-77
2021/10/27 04:16:35;;;;;;;94.17;50.55;;;;;;;-0.02;55.66;102246.33;449947;115;923428;-78
2021/10/27 04:17:40;;;;;;;94.22;48.40;;;;;;;0.01;55.64;102250.60;450341;115;930514;-79
2021/10/27 04:18:44;;;;;;;97.91;52.04;;;;;;;0.04;55.64;102252.23;448955;116;930583;-76
2021/10/27 04:19:49;;;;;;;93.26;49.26;;;;;;;0.05;55.66;102253.95;449162;116;922552;-77
2021/10/27 04:20:52;;;;;;;104.36;50.72;;;;;;;0.05;55.65;102249.45;449315;115;930576;-76
2021/10/27 04:21:56;;;;;;;101.80;50.69;;;;;;;0.07;55.58;102249.32;449728;115;922472;-77
2021/10/27 04:22:59;;;;;;;97.61;50.07;;;;;;;0.08;55.61;102249.22;450252;116;922480;-78
2021/10/27 04:24:04;;;;;;;107.24;51.54;;;;;;;0.11;55.59;102250.84;449296;116;922637;-77
2021/10/27 04:25:10;;;;;;;113.22;55.83;;;;;;;0.12;55.53;102255.22;448328;115;930642;-77
2021/10/27 04:26:14;;;;;;;115.16;57.26;;;;;;;0.14;55.44;102261.34;449890;115;922974;-77
2021/10/27 04:27:18;;;;;;;120.29;58.91;;;;;;;0.14;55.40;102256.84;450400;115;922874;-77
2021/10/27 04:28:22;;;;;;;114.81;55.18;;;;;;;0.16;55.32;102262.11;449088;115;922503;-77
2021/10/27 04:29:25;;;;;;;115.35;57.07;;;;;;;0.16;55.29;102262.11;449526;116;922606;-79
2021/10/27 04:30:29;;;;;;;108.06;56.29;;;;;;;0.18;55.30;102262.84;450003;115;923051;-76
2021/10/27 04:31:32;;;;;;;129.58;61.39;;;;;;;0.17;55.31;102261.13;451826;115;930415;-76
2021/10/27 04:32:37;;;;;;;122.76;61.10;;;;;;;0.16;55.34;102265.66;450072;116;930231;-78
2021/10/27 04:33:41;;;;;;;117.43;59.94;;;;;;;0.19;55.33;102264.56;449110;115;922677;-75
2021/10/27 04:34:45;;;;;;;119.59;58.68;;;;;;;0.22;55.15;102262.52;450985;115;922735;-74
2021/10/27 04:35:52;;;;;;;119.76;58.97;;;;;;;0.25;55.20;102267.69;450221;115;930957;-76
2021/10/27 04:36:56;;;;;;;138.56;69.84;;;;;;;0.28;55.17;102262.09;450392;115;922598;-81
2021/10/27 04:38:00;;;;;;;181.02;88.46;;;;;;;0.32;55.14;102262.75;450231;116;922624;-79
2021/10/27 04:39:05;;;;;;;182.68;92.99;;;;;;;0.36;55.09;102269.61;450621;116;922475;-80
2021/10/27 04:40:12;;;;;;;201.36;101.19;;;;;;;0.40;54.97;102269.28;451321;115;922823;-79
2021/10/27 04:41:16;;;;;;;219.01;102.78;;;;;;;0.46;54.88;102269.81;451187;116;922491;-76
2021/10/27 04:42:20;;;;;;;237.04;116.38;;;;;;;0.48;54.68;102266.07;435646;118;922583;-77
2021/10/27 04:43:24;;;;;;;278.33;132.26;;;;;;;0.50;54.61;102274.85;440996;118;923342;-75
2021/10/27 04:44:27;;;;;;;312.61;147.39;;;;;;;0.53;54.46;102284.53;440594;117;922931;-77
2021/10/27 04:45:31;;;;;;;306.12;147.97;;;;;;;0.53;54.38;102276.47;442392;116;922594;-78
2021/10/27 04:46:35;;;;;;;282.73;135.24;;;;;;;0.52;54.36;102270.25;435833;118;930427;-77
2021/10/27 04:47:41;;;;;;;312.24;144.96;;;;;;;0.53;54.35;102273.79;434694;119;922574;-77
2021/10/27 04:48:45;;;;;;;263.51;124.74;;;;;;;0.52;54.35;102274.75;441906;118;922940;-77
2021/10/27 04:49:48;;;;;;;226.64;110.56;;;;;;;0.54;54.35;102270.14;433244;119;922546;-78